Airfield :
LOGIN :

Register | Disclaimer

   EN    FR    IT 

 










Legend :    VFR   Marginal VFR   IFR   Intensive IFR   Very Intensive IFR
Visi :
Ceiling :
>= 8 km
>= 3000ft
5 to 8 km
1000 to 3000 ft
1500m to 5 km
500 to 1000 ft
800 to 1500m
200 to 500 ft
< 800m
< 200 ft
Symbols :   Thunderstorms  Fog  Heavy snow  Heavy precipitations  Wind > 20 kt
SIGMETs :     Misc.  Thunderstorms  Icing  Turbulence  Mountain Waves  Volcanic Ashes






- Airport Elevation : 184 ft
- IATA code : BRU


EBBR - Bruxelles

CURRENT METAR :
  • 181920Z 29004KT CAVOK 03/00 Q1030 NOSIG

EXPIRED METARs :
  • 181850Z 30005KT 9999 FEW022 03/00 Q1029 NOSIG
  • 181820Z 29004KT 9999 SCT022 03/01 Q1029 NOSIG
  • 181750Z 28006KT 9999 FEW029 03/00 Q1029 NOSIG
  • 181720Z 29006KT 9999 FEW029 04/01 Q1028 NOSIG
  • 181650Z 29007KT 9999 FEW029 05/01 Q1028 NOSIG

TAF TAF EBBR
Valid from the 18 at 18:00 until the 20 at 00:00 UTC


181710Z 1818/1924 28006KT 9999 FEW025
PROB40
TEMPO 1900/1909 3500 SHRAGS SCT008 BKN014CB
TEMPO 1909/1914 36010KT
PROB40 1923/1924 3500 BR



MET'MAP, your aeronautical weather chart ! - Copyright ORBIFLY December 2007 - Disclaimer

ORBIFLY MET'MAP TEAM :

Programming & Development : Alexandra Zaïnal
Concept & original design : Baudouin d'Aumeries
Assistance for programming : Marc-Olivier Méhu
Technical & hardware support : Manuel Goepfert

Contact : metmap@orbifly.com




SOURCES & CREDITS :

   NOAA